createdAt,value
2023-04-12T00:02:45.521Z,6.97
2023-04-12T00:11:08.530Z,6.82
2023-04-12T00:19:31.394Z,6.73
2023-04-12T00:27:54.376Z,6.69
2023-04-12T00:36:18.721Z,6.61
2023-04-12T00:44:42.151Z,6.47
2023-04-12T00:53:05.058Z,6.24
2023-04-12T01:01:28.659Z,5.97
2023-04-12T01:10:12.568Z,5.77
2023-04-12T01:18:46.086Z,5.51
2023-04-12T01:27:28.712Z,5.25
2023-04-12T01:35:53.924Z,5.05
2023-04-12T01:44:18.169Z,4.81
2023-04-12T01:52:49.863Z,4.51
2023-04-12T02:01:15.588Z,4.36
2023-04-12T02:09:39.779Z,4.44
2023-04-12T02:18:03.537Z,4.70
2023-04-12T02:26:27.917Z,5.11
2023-04-12T02:34:51.900Z,5.54
2023-04-12T02:43:16.776Z,5.87
2023-04-12T02:51:42.127Z,6.14
2023-04-12T03:00:17.425Z,6.35
2023-04-12T03:08:45.935Z,6.46
2023-04-12T03:17:10.959Z,6.52
2023-04-12T03:25:34.394Z,6.57
2023-04-12T03:34:10.994Z,6.65
2023-04-12T03:42:38.074Z,6.68
2023-04-12T03:51:12.066Z,6.68
2023-04-12T03:59:38.926Z,6.69
2023-04-12T04:08:02.819Z,6.65
2023-04-12T04:16:32.113Z,6.65
2023-04-12T04:24:57.035Z,6.66
2023-04-12T04:33:21.560Z,6.72
2023-04-12T04:41:47.091Z,6.77
2023-04-12T04:50:22.194Z,6.85
2023-04-12T04:58:46.812Z,6.91
2023-04-12T05:07:11.024Z,7.00
2023-04-12T05:15:35.380Z,7.09
2023-04-12T05:23:58.725Z,7.14
2023-04-12T05:32:22.372Z,7.16
2023-04-12T05:40:45.580Z,7.23
2023-04-12T05:49:10.451Z,7.35
2023-04-12T05:57:34.249Z,7.44
2023-04-12T06:05:58.092Z,7.53
2023-04-12T06:14:21.378Z,7.66
2023-04-12T06:22:44.490Z,7.79
2023-04-12T06:31:10.780Z,7.86
2023-04-12T06:39:37.518Z,7.84
2023-04-12T06:48:00.719Z,7.83
2023-04-12T06:56:23.823Z,7.94
2023-04-12T07:04:47.583Z,7.98
2023-04-12T07:13:10.929Z,7.93
2023-04-12T07:21:33.909Z,7.85
2023-04-12T07:29:58.634Z,8.05
2023-04-12T07:38:22.019Z,8.48
2023-04-12T07:46:46.244Z,8.65
2023-04-12T07:55:10.199Z,8.62
2023-04-12T08:03:33.242Z,8.90
2023-04-12T08:11:57.039Z,9.43
2023-04-12T08:20:20.042Z,9.57
2023-04-12T08:28:43.237Z,9.54
2023-04-12T08:37:06.862Z,9.64
2023-04-12T08:45:32.693Z,9.80
2023-04-12T08:53:56.657Z,10.12
2023-04-12T09:02:20.945Z,10.45
2023-04-12T09:10:44.433Z,10.63
2023-04-12T09:19:08.709Z,10.74
2023-04-12T09:27:47.255Z,10.79
2023-04-12T09:36:14.828Z,10.96
2023-04-12T09:44:39.435Z,11.01
2023-04-12T09:53:14.665Z,11.07
2023-04-12T10:01:43.200Z,11.13
2023-04-12T10:10:08.936Z,11.37
2023-04-12T10:18:39.670Z,11.57
2023-04-12T10:27:04.575Z,11.82
2023-04-12T10:35:27.792Z,12.02
2023-04-12T10:43:52.917Z,12.29
2023-04-12T10:52:18.804Z,12.81
2023-04-12T11:00:58.480Z,13.09
2023-04-12T11:09:29.632Z,13.27
2023-04-12T11:17:57.777Z,13.33
2023-04-12T11:26:22.197Z,13.59
2023-04-12T11:34:50.081Z,13.57
2023-04-12T11:43:22.290Z,13.48
2023-04-12T11:51:48.973Z,13.41
2023-04-12T12:00:13.447Z,13.08
2023-04-12T12:08:37.980Z,13.06
2023-04-12T12:17:01.260Z,13.16
2023-04-12T12:25:24.329Z,13.09
2023-04-12T12:33:47.976Z,12.87
2023-04-12T12:42:12.379Z,12.95
2023-04-12T12:50:36.526Z,12.94
2023-04-12T12:58:59.843Z,12.91
2023-04-12T13:07:23.201Z,13.13
2023-04-12T13:15:49.221Z,13.36
2023-04-12T13:24:12.207Z,13.48
2023-04-12T13:32:35.971Z,13.52
2023-04-12T13:40:59.283Z,13.61
2023-04-12T13:49:22.256Z,13.77
2023-04-12T13:57:45.180Z,13.75
2023-04-12T14:06:09.560Z,13.63
2023-04-12T14:14:32.631Z,13.62
2023-04-12T14:22:57.003Z,13.25
2023-04-12T14:31:20.345Z,12.92
2023-04-12T14:39:44.465Z,12.76
2023-04-12T14:48:07.761Z,12.59
2023-04-12T14:56:32.196Z,12.52
2023-04-12T15:05:04.128Z,12.73
2023-04-12T15:13:32.915Z,12.77
2023-04-12T15:21:57.192Z,12.79
2023-04-12T15:30:20.329Z,12.91
2023-04-12T15:38:44.427Z,12.96
2023-04-12T15:47:11.402Z,12.83
2023-04-12T15:55:34.997Z,12.69
2023-04-12T16:03:58.234Z,12.64
2023-04-12T16:12:21.424Z,12.69
2023-04-12T16:20:45.327Z,12.75
2023-04-12T16:29:08.950Z,12.67
2023-04-12T16:37:32.453Z,12.43
2023-04-12T16:45:56.887Z,12.22
2023-04-12T16:54:20.085Z,11.92
2023-04-12T17:02:43.222Z,11.58
2023-04-12T17:11:06.353Z,11.27
2023-04-12T17:19:29.682Z,10.99
2023-04-12T17:27:53.115Z,10.81
2023-04-12T17:36:16.269Z,10.69
2023-04-12T17:44:39.231Z,10.50
2023-04-12T17:53:02.577Z,10.26
2023-04-12T18:01:25.603Z,10.08
2023-04-12T18:09:48.889Z,9.99
2023-04-12T18:18:12.529Z,9.88
2023-04-12T18:26:36.076Z,9.73
2023-04-12T18:34:58.988Z,9.56
2023-04-12T18:43:22.834Z,9.47
2023-04-12T18:51:46.278Z,9.44
2023-04-12T19:00:14.679Z,9.37
2023-04-12T19:08:38.217Z,9.28
2023-04-12T19:17:01.352Z,9.24
2023-04-12T19:25:29.790Z,9.27
2023-04-12T19:33:54.872Z,9.25
2023-04-12T19:42:18.068Z,9.16
2023-04-12T19:50:41.620Z,9.05
2023-04-12T19:59:10.866Z,8.94
2023-04-12T20:07:35.058Z,8.78
2023-04-12T20:16:00.957Z,8.51
2023-04-12T20:24:25.790Z,8.23
2023-04-12T20:32:49.488Z,7.99
2023-04-12T20:41:13.002Z,7.72
2023-04-12T20:49:36.203Z,7.37
2023-04-12T20:58:00.739Z,7.09
2023-04-12T21:06:23.655Z,6.90
2023-04-12T21:14:50.283Z,6.68
2023-04-12T21:23:18.112Z,6.43
2023-04-12T21:31:41.615Z,6.22
2023-04-12T21:40:16.161Z,5.96
2023-04-12T21:48:39.134Z,5.69
2023-04-12T21:57:02.221Z,5.49
2023-04-12T22:05:25.512Z,5.36
2023-04-12T22:13:48.381Z,5.26
2023-04-12T22:22:11.568Z,5.12
2023-04-12T22:30:35.465Z,4.99
2023-04-12T22:38:58.347Z,4.84
2023-04-12T22:47:21.567Z,4.67
2023-04-12T22:55:45.023Z,4.55
2023-04-12T23:04:15.729Z,4.39
2023-04-12T23:12:38.957Z,4.24
2023-04-12T23:21:02.967Z,4.19
2023-04-12T23:29:25.953Z,4.06
2023-04-12T23:37:49.583Z,3.94
2023-04-12T23:46:12.930Z,3.88
2023-04-12T23:54:35.867Z,3.77
